sensor_id;sensor_type;location;lat;lon;timestamp;pressure;altitude;pressure_sealevel;temperature;humidity
24160;BME280;62385;41.594;23.808;2023-12-20T00:01:21;95989.28;;;-0.28;87.72
24160;BME280;62385;41.594;23.808;2023-12-20T00:03:47;95995.97;;;0.05;87.85
24160;BME280;62385;41.594;23.808;2023-12-20T00:06:12;95997.03;;;0.02;87.51
24160;BME280;62385;41.594;23.808;2023-12-20T00:08:38;95981.66;;;-0.17;86.97
24160;BME280;62385;41.594;23.808;2023-12-20T00:11:03;96005.22;;;-0.18;88.07
24160;BME280;62385;41.594;23.808;2023-12-20T00:13:29;95995.53;;;-0.02;88.05
24160;BME280;62385;41.594;23.808;2023-12-20T00:15:55;95996.38;;;-0.16;89.19
24160;BME280;62385;41.594;23.808;2023-12-20T00:18:20;95995.34;;;-0.27;89.83
24160;BME280;62385;41.594;23.808;2023-12-20T00:20:46;95986.78;;;-0.29;90.00
24160;BME280;62385;41.594;23.808;2023-12-20T00:23:11;95993.69;;;0.00;89.33
24160;BME280;62385;41.594;23.808;2023-12-20T00:25:37;95975.69;;;-0.19;89.41
24160;BME280;62385;41.594;23.808;2023-12-20T00:28:02;95992.28;;;-0.20;88.74
24160;BME280;62385;41.594;23.808;2023-12-20T00:30:28;95978.69;;;-0.39;89.13
24160;BME280;62385;41.594;23.808;2023-12-20T00:32:54;95984.44;;;-0.06;87.81
24160;BME280;62385;41.594;23.808;2023-12-20T00:35:20;95984.25;;;-0.45;88.25
24160;BME280;62385;41.594;23.808;2023-12-20T00:37:45;95981.56;;;-0.29;88.23
24160;BME280;62385;41.594;23.808;2023-12-20T00:40:11;95979.69;;;0.01;86.91
24160;BME280;62385;41.594;23.808;2023-12-20T00:42:36;95978.97;;;-0.29;86.69
24160;BME280;62385;41.594;23.808;2023-12-20T00:45:02;95965.81;;;-0.28;87.02
24160;BME280;62385;41.594;23.808;2023-12-20T00:47:32;95971.94;;;-0.29;86.62
24160;BME280;62385;41.594;23.808;2023-12-20T00:49:58;95978.19;;;-0.60;86.52
24160;BME280;62385;41.594;23.808;2023-12-20T00:52:24;95970.34;;;-0.74;86.40
24160;BME280;62385;41.594;23.808;2023-12-20T00:54:50;95967.09;;;-0.77;86.86
24160;BME280;62385;41.594;23.808;2023-12-20T00:57:16;95939.25;;;-0.77;86.63
24160;BME280;62385;41.594;23.808;2023-12-20T00:59:41;95964.50;;;-0.63;87.27
24160;BME280;62385;41.594;23.808;2023-12-20T01:02:07;95955.19;;;-0.67;87.03
24160;BME280;62385;41.594;23.808;2023-12-20T01:04:33;95939.44;;;-0.66;85.90
24160;BME280;62385;41.594;23.808;2023-12-20T01:06:58;95957.25;;;-0.44;86.37
24160;BME280;62385;41.594;23.808;2023-12-20T01:09:24;95961.91;;;-0.63;86.48
24160;BME280;62385;41.594;23.808;2023-12-20T01:11:52;95960.75;;;-0.73;86.40
24160;BME280;62385;41.594;23.808;2023-12-20T01:14:18;95955.34;;;-0.84;85.85
24160;BME280;62385;41.594;23.808;2023-12-20T01:16:44;95947.88;;;-0.90;86.21
24160;BME280;62385;41.594;23.808;2023-12-20T01:19:09;95943.81;;;-0.80;87.15
24160;BME280;62385;41.594;23.808;2023-12-20T01:21:35;95947.25;;;-0.66;87.03
24160;BME280;62385;41.594;23.808;2023-12-20T01:24:01;95936.41;;;-0.58;86.48
24160;BME280;62385;41.594;23.808;2023-12-20T01:26:26;95933.41;;;-0.52;86.78
24160;BME280;62385;41.594;23.808;2023-12-20T01:28:52;95936.47;;;-0.46;86.89
24160;BME280;62385;41.594;23.808;2023-12-20T01:31:18;95938.81;;;-0.55;85.98
24160;BME280;62385;41.594;23.808;2023-12-20T01:33:44;95932.22;;;-0.47;85.64
24160;BME280;62385;41.594;23.808;2023-12-20T01:36:10;95933.22;;;-0.49;84.96
24160;BME280;62385;41.594;23.808;2023-12-20T01:38:37;95933.31;;;-0.65;85.82
24160;BME280;62385;41.594;23.808;2023-12-20T01:41:02;95912.34;;;-0.49;84.33
24160;BME280;62385;41.594;23.808;2023-12-20T01:43:29;95904.53;;;-0.49;85.52
24160;BME280;62385;41.594;23.808;2023-12-20T01:45:56;95879.75;;;-0.70;84.85
24160;BME280;62385;41.594;23.808;2023-12-20T01:48:23;95913.84;;;-0.59;85.25
24160;BME280;62385;41.594;23.808;2023-12-20T01:50:49;95904.28;;;-0.59;85.95
24160;BME280;62385;41.594;23.808;2023-12-20T01:53:15;95897.09;;;-0.69;85.36
24160;BME280;62385;41.594;23.808;2023-12-20T01:55:42;95907.03;;;-0.62;85.59
24160;BME280;62385;41.594;23.808;2023-12-20T01:58:09;95859.03;;;-0.72;85.10
24160;BME280;62385;41.594;23.808;2023-12-20T02:00:36;95903.63;;;-0.62;85.68
24160;BME280;62385;41.594;23.808;2023-12-20T02:03:02;95859.09;;;-0.59;85.46
24160;BME280;62385;41.594;23.808;2023-12-20T02:05:33;95896.91;;;-0.52;86.51
24160;BME280;62385;41.594;23.808;2023-12-20T02:07:59;95886.38;;;-0.51;87.28
24160;BME280;62385;41.594;23.808;2023-12-20T02:10:25;95900.44;;;-0.96;87.91
24160;BME280;62385;41.594;23.808;2023-12-20T02:12:50;95899.13;;;-0.88;87.13
24160;BME280;62385;41.594;23.808;2023-12-20T02:15:16;95851.56;;;-1.20;86.93
24160;BME280;62385;41.594;23.808;2023-12-20T02:17:42;95878.84;;;-0.69;86.93
24160;BME280;62385;41.594;23.808;2023-12-20T02:20:08;95861.22;;;-0.66;86.45
24160;BME280;62385;41.594;23.808;2023-12-20T02:22:34;95861.59;;;-0.43;86.60
24160;BME280;62385;41.594;23.808;2023-12-20T02:24:59;95859.41;;;-0.23;85.57
24160;BME280;62385;41.594;23.808;2023-12-20T02:27:25;95870.28;;;-0.16;85.20
24160;BME280;62385;41.594;23.808;2023-12-20T02:29:50;95865.88;;;-0.42;84.82
24160;BME280;62385;41.594;23.808;2023-12-20T02:32:17;95857.91;;;-0.13;84.25
24160;BME280;62385;41.594;23.808;2023-12-20T02:34:43;95862.88;;;-0.36;85.07
24160;BME280;62385;41.594;23.808;2023-12-20T02:37:08;95832.66;;;-0.67;84.99
24160;BME280;62385;41.594;23.808;2023-12-20T02:39:34;95856.22;;;-0.69;86.17
24160;BME280;62385;41.594;23.808;2023-12-20T02:41:59;95861.06;;;-0.63;86.00
24160;BME280;62385;41.594;23.808;2023-12-20T02:44:25;95868.88;;;-0.91;87.44
24160;BME280;62385;41.594;23.808;2023-12-20T02:46:50;95855.75;;;-0.89;87.26
24160;BME280;62385;41.594;23.808;2023-12-20T02:49:16;95841.25;;;-0.79;87.22
24160;BME280;62385;41.594;23.808;2023-12-20T02:51:41;95846.44;;;-0.51;85.49
24160;BME280;62385;41.594;23.808;2023-12-20T02:54:07;95843.19;;;-0.55;86.18
24160;BME280;62385;41.594;23.808;2023-12-20T02:56:33;95852.56;;;-0.38;86.12
24160;BME280;62385;41.594;23.808;2023-12-20T02:58:59;95867.03;;;-0.20;85.36
24160;BME280;62385;41.594;23.808;2023-12-20T03:01:24;95820.16;;;-0.48;86.35
24160;BME280;62385;41.594;23.808;2023-12-20T03:03:50;95849.13;;;-0.38;87.62
24160;BME280;62385;41.594;23.808;2023-12-20T03:06:17;95861.38;;;-0.26;87.90
24160;BME280;62385;41.594;23.808;2023-12-20T03:08:44;95857.78;;;-0.38;88.81
24160;BME280;62385;41.594;23.808;2023-12-20T03:11:10;95804.84;;;-0.67;89.17
24160;BME280;62385;41.594;23.808;2023-12-20T03:13:35;95837.31;;;-0.58;89.41
24160;BME280;62385;41.594;23.808;2023-12-20T03:16:01;95821.25;;;-0.38;87.93
24160;BME280;62385;41.594;23.808;2023-12-20T03:18:26;95838.19;;;-0.17;87.56
24160;BME280;62385;41.594;23.808;2023-12-20T03:20:53;95842.13;;;-0.38;87.66
24160;BME280;62385;41.594;23.808;2023-12-20T03:23:19;95849.00;;;-0.37;88.19
24160;BME280;62385;41.594;23.808;2023-12-20T03:25:44;95849.81;;;-0.22;87.97
24160;BME280;62385;41.594;23.808;2023-12-20T03:28:10;95823.59;;;-0.48;88.45
24160;BME280;62385;41.594;23.808;2023-12-20T03:30:36;95850.09;;;-0.27;88.38
24160;BME280;62385;41.594;23.808;2023-12-20T03:33:01;95845.66;;;-0.39;88.66
24160;BME280;62385;41.594;23.808;2023-12-20T03:35:26;95842.00;;;-0.36;88.60
24160;BME280;62385;41.594;23.808;2023-12-20T03:37:52;95842.97;;;-0.37;88.52
24160;BME280;62385;41.594;23.808;2023-12-20T03:40:18;95815.34;;;-0.68;89.79
24160;BME280;62385;41.594;23.808;2023-12-20T03:42:43;95804.56;;;-0.62;89.80
24160;BME280;62385;41.594;23.808;2023-12-20T03:45:09;95792.53;;;-0.24;88.22
24160;BME280;62385;41.594;23.808;2023-12-20T03:47:34;95809.41;;;-0.29;89.07
24160;BME280;62385;41.594;23.808;2023-12-20T03:50:00;95801.53;;;-0.56;88.65
24160;BME280;62385;41.594;23.808;2023-12-20T03:52:25;95810.06;;;-0.26;88.75
24160;BME280;62385;41.594;23.808;2023-12-20T03:54:51;95818.47;;;-0.49;88.97
24160;BME280;62385;41.594;23.808;2023-12-20T03:57:16;95778.38;;;-0.61;88.50
24160;BME280;62385;41.594;23.808;2023-12-20T03:59:42;95825.16;;;-0.31;88.41
24160;BME280;62385;41.594;23.808;2023-12-20T04:02:07;95800.63;;;-0.28;87.81
24160;BME280;62385;41.594;23.808;2023-12-20T04:04:33;95810.84;;;-0.38;87.64
24160;BME280;62385;41.594;23.808;2023-12-20T04:06:58;95810.13;;;-0.54;88.26
24160;BME280;62385;41.594;23.808;2023-12-20T04:09:24;95806.41;;;-0.50;88.85
24160;BME280;62385;41.594;23.808;2023-12-20T04:11:49;95808.50;;;-0.42;89.10
24160;BME280;62385;41.594;23.808;2023-12-20T04:14:15;95816.56;;;-0.60;89.62
24160;BME280;62385;41.594;23.808;2023-12-20T04:16:40;95796.63;;;-0.61;90.20
24160;BME280;62385;41.594;23.808;2023-12-20T04:19:06;95810.13;;;-0.54;90.97
24160;BME280;62385;41.594;23.808;2023-12-20T04:21:31;95810.28;;;-0.57;90.71
24160;BME280;62385;41.594;23.808;2023-12-20T04:23:57;95808.47;;;-0.83;91.84
24160;BME280;62385;41.594;23.808;2023-12-20T04:26:22;95799.25;;;-0.89;91.87
24160;BME280;62385;41.594;23.808;2023-12-20T04:28:48;95795.97;;;-0.50;91.32
24160;BME280;62385;41.594;23.808;2023-12-20T04:31:13;95798.81;;;-0.40;91.69
24160;BME280;62385;41.594;23.808;2023-12-20T04:33:39;95792.38;;;-0.35;90.66
24160;BME280;62385;41.594;23.808;2023-12-20T04:36:05;95800.41;;;-0.52;91.08
24160;BME280;62385;41.594;23.808;2023-12-20T04:38:30;95799.09;;;-0.45;91.18
24160;BME280;62385;41.594;23.808;2023-12-20T04:40:56;95800.81;;;-0.58;91.56
24160;BME280;62385;41.594;23.808;2023-12-20T04:43:22;95810.84;;;-0.52;92.34
24160;BME280;62385;41.594;23.808;2023-12-20T04:45:47;95807.72;;;-0.30;91.22
24160;BME280;62385;41.594;23.808;2023-12-20T04:48:13;95801.97;;;-0.35;91.32
24160;BME280;62385;41.594;23.808;2023-12-20T04:50:38;95794.53;;;-0.41;90.86
24160;BME280;62385;41.594;23.808;2023-12-20T04:53:04;95794.97;;;-0.76;91.46
24160;BME280;62385;41.594;23.808;2023-12-20T04:55:29;95778.41;;;-0.34;91.54
24160;BME280;62385;41.594;23.808;2023-12-20T04:57:55;95784.41;;;-0.19;91.16
24160;BME280;62385;41.594;23.808;2023-12-20T05:00:21;95789.28;;;-0.27;91.20
24160;BME280;62385;41.594;23.808;2023-12-20T05:02:47;95787.44;;;-0.39;91.18
24160;BME280;62385;41.594;23.808;2023-12-20T05:05:13;95785.47;;;-0.36;91.04
24160;BME280;62385;41.594;23.808;2023-12-20T05:07:40;95768.16;;;-0.37;90.43
24160;BME280;62385;41.594;23.808;2023-12-20T05:10:06;95777.75;;;-0.11;89.91
24160;BME280;62385;41.594;23.808;2023-12-20T05:12:33;95795.47;;;-0.16;88.82
24160;BME280;62385;41.594;23.808;2023-12-20T05:14:59;95774.38;;;-0.25;90.85
24160;BME280;62385;41.594;23.808;2023-12-20T05:17:25;95800.25;;;-0.22;90.38
24160;BME280;62385;41.594;23.808;2023-12-20T05:19:51;95779.22;;;-0.07;90.04
24160;BME280;62385;41.594;23.808;2023-12-20T05:22:16;95769.72;;;-0.08;89.58
24160;BME280;62385;41.594;23.808;2023-12-20T05:24:42;95768.16;;;-0.10;89.77
24160;BME280;62385;41.594;23.808;2023-12-20T05:27:08;95739.84;;;-0.16;89.87
24160;BME280;62385;41.594;23.808;2023-12-20T05:29:33;95774.91;;;-0.20;90.67
24160;BME280;62385;41.594;23.808;2023-12-20T05:31:59;95766.00;;;-0.30;90.79
24160;BME280;62385;41.594;23.808;2023-12-20T05:34:24;95769.94;;;-0.11;90.64
24160;BME280;62385;41.594;23.808;2023-12-20T05:36:50;95720.13;;;-0.47;89.77
24160;BME280;62385;41.594;23.808;2023-12-20T05:39:15;95772.50;;;-0.23;90.72
24160;BME280;62385;41.594;23.808;2023-12-20T05:41:41;95740.16;;;-0.48;89.73
24160;BME280;62385;41.594;23.808;2023-12-20T05:44:07;95773.00;;;-0.45;90.74
24160;BME280;62385;41.594;23.808;2023-12-20T05:46:32;95765.94;;;-0.43;91.08
24160;BME280;62385;41.594;23.808;2023-12-20T05:48:58;95766.78;;;-0.42;91.09
24160;BME280;62385;41.594;23.808;2023-12-20T05:51:23;95768.22;;;-0.65;91.23
24160;BME280;62385;41.594;23.808;2023-12-20T05:53:49;95755.59;;;-0.71;91.77
24160;BME280;62385;41.594;23.808;2023-12-20T05:56:15;95750.44;;;-0.59;91.53
24160;BME280;62385;41.594;23.808;2023-12-20T05:58:41;95720.81;;;-0.84;91.33
24160;BME280;62385;41.594;23.808;2023-12-20T06:01:06;95763.44;;;-0.44;91.95
24160;BME280;62385;41.594;23.808;2023-12-20T06:03:33;95761.75;;;-0.46;92.16
24160;BME280;62385;41.594;23.808;2023-12-20T06:06:05;95752.09;;;-0.58;91.52
24160;BME280;62385;41.594;23.808;2023-12-20T06:08:31;95752.84;;;-0.29;90.74
24160;BME280;62385;41.594;23.808;2023-12-20T06:10:57;95725.63;;;-0.25;91.17
24160;BME280;62385;41.594;23.808;2023-12-20T06:13:22;95765.84;;;-0.15;90.48
24160;BME280;62385;41.594;23.808;2023-12-20T06:15:48;95694.53;;;-0.81;89.98
24160;BME280;62385;41.594;23.808;2023-12-20T06:18:13;95745.16;;;-0.44;91.21
24160;BME280;62385;41.594;23.808;2023-12-20T06:20:39;95762.06;;;-0.23;90.33
24160;BME280;62385;41.594;23.808;2023-12-20T06:23:04;95762.88;;;-0.50;90.98
24160;BME280;62385;41.594;23.808;2023-12-20T06:25:30;95753.31;;;-0.22;91.18
24160;BME280;62385;41.594;23.808;2023-12-20T06:27:55;95749.38;;;-0.03;89.79
24160;BME280;62385;41.594;23.808;2023-12-20T06:30:21;95761.41;;;0.00;89.37
24160;BME280;62385;41.594;23.808;2023-12-20T06:32:46;95759.44;;;0.04;89.98
24160;BME280;62385;41.594;23.808;2023-12-20T06:35:12;95758.38;;;0.06;88.79
24160;BME280;62385;41.594;23.808;2023-12-20T06:37:38;95755.69;;;0.08;88.86
24160;BME280;62385;41.594;23.808;2023-12-20T06:40:09;95754.63;;;0.10;89.13
24160;BME280;62385;41.594;23.808;2023-12-20T06:42:35;95751.06;;;-0.02;88.72
24160;BME280;62385;41.594;23.808;2023-12-20T06:45:01;95756.63;;;-0.20;88.11
24160;BME280;62385;41.594;23.808;2023-12-20T06:47:26;95749.44;;;-0.29;88.06
24160;BME280;62385;41.594;23.808;2023-12-20T06:49:52;95734.91;;;-0.33;88.08
24160;BME280;62385;41.594;23.808;2023-12-20T06:52:17;95724.34;;;-0.32;88.50
24160;BME280;62385;41.594;23.808;2023-12-20T06:54:43;95726.63;;;-0.13;88.70
24160;BME280;62385;41.594;23.808;2023-12-20T06:57:09;95741.84;;;-0.07;88.88
24160;BME280;62385;41.594;23.808;2023-12-20T06:59:39;95718.19;;;0.09;88.65
24160;BME280;62385;41.594;23.808;2023-12-20T07:02:05;95713.28;;;0.17;88.18
24160;BME280;62385;41.594;23.808;2023-12-20T07:04:31;95695.78;;;0.31;87.27
24160;BME280;62385;41.594;23.808;2023-12-20T07:06:56;95736.09;;;0.40;86.56
24160;BME280;62385;41.594;23.808;2023-12-20T07:09:25;95696.69;;;0.18;86.67
24160;BME280;62385;41.594;23.808;2023-12-20T07:11:51;95719.88;;;0.22;86.53
24160;BME280;62385;41.594;23.808;2023-12-20T07:14:17;95726.44;;;0.03;87.62
24160;BME280;62385;41.594;23.808;2023-12-20T07:16:43;95720.38;;;0.02;87.67
24160;BME280;62385;41.594;23.808;2023-12-20T07:19:08;95713.13;;;0.32;87.07
24160;BME280;62385;41.594;23.808;2023-12-20T07:21:34;95720.84;;;0.46;85.89
24160;BME280;62385;41.594;23.808;2023-12-20T07:23:59;95727.03;;;0.33;86.00
24160;BME280;62385;41.594;23.808;2023-12-20T07:26:25;95689.28;;;0.12;85.08
24160;BME280;62385;41.594;23.808;2023-12-20T07:28:50;95717.19;;;0.36;85.83
24160;BME280;62385;41.594;23.808;2023-12-20T07:31:16;95703.09;;;0.39;85.91
24160;BME280;62385;41.594;23.808;2023-12-20T07:33:42;95675.09;;;0.28;85.57
24160;BME280;62385;41.594;23.808;2023-12-20T07:36:07;95697.47;;;0.45;85.84
24160;BME280;62385;41.594;23.808;2023-12-20T07:38:33;95659.31;;;0.17;85.90
24160;BME280;62385;41.594;23.808;2023-12-20T07:40:59;95701.63;;;0.35;87.08
24160;BME280;62385;41.594;23.808;2023-12-20T07:43:24;95702.13;;;0.15;86.62
24160;BME280;62385;41.594;23.808;2023-12-20T07:45:50;95676.94;;;0.01;87.30
24160;BME280;62385;41.594;23.808;2023-12-20T07:48:16;95699.91;;;0.09;87.83
24160;BME280;62385;41.594;23.808;2023-12-20T07:50:41;95675.81;;;0.05;87.67
24160;BME280;62385;41.594;23.808;2023-12-20T07:53:07;95690.41;;;-0.05;87.27
24160;BME280;62385;41.594;23.808;2023-12-20T07:55:33;95694.63;;;0.35;86.95
24160;BME280;62385;41.594;23.808;2023-12-20T07:58:00;95691.50;;;0.30;87.67
24160;BME280;62385;41.594;23.808;2023-12-20T08:00:26;95676.88;;;0.40;88.16
24160;BME280;62385;41.594;23.808;2023-12-20T08:02:51;95674.34;;;0.14;87.51
24160;BME280;62385;41.594;23.808;2023-12-20T08:05:17;95666.31;;;0.04;88.82
24160;BME280;62385;41.594;23.808;2023-12-20T08:07:42;95692.81;;;-0.02;89.61
24160;BME280;62385;41.594;23.808;2023-12-20T08:10:08;95684.03;;;-0.14;89.60
24160;BME280;62385;41.594;23.808;2023-12-20T08:12:34;95679.47;;;0.03;90.35
24160;BME280;62385;41.594;23.808;2023-12-20T08:15:00;95682.94;;;0.28;89.52
24160;BME280;62385;41.594;23.808;2023-12-20T08:17:25;95682.41;;;0.36;89.77
24160;BME280;62385;41.594;23.808;2023-12-20T08:19:51;95678.00;;;0.74;89.38
24160;BME280;62385;41.594;23.808;2023-12-20T08:22:17;95663.56;;;0.81;89.15
24160;BME280;62385;41.594;23.808;2023-12-20T08:24:42;95658.09;;;0.97;88.65
24160;BME280;62385;41.594;23.808;2023-12-20T08:27:08;95659.88;;;1.20;87.81
24160;BME280;62385;41.594;23.808;2023-12-20T08:29:35;95644.97;;;1.33;88.17
24160;BME280;62385;41.594;23.808;2023-12-20T08:32:01;95665.69;;;1.60;87.40
24160;BME280;62385;41.594;23.808;2023-12-20T08:34:26;95631.97;;;1.45;87.16
24160;BME280;62385;41.594;23.808;2023-12-20T08:36:52;95628.41;;;1.46;87.30
24160;BME280;62385;41.594;23.808;2023-12-20T08:39:17;95657.56;;;1.52;87.41
24160;BME280;62385;41.594;23.808;2023-12-20T08:41:43;95639.94;;;1.43;87.78
24160;BME280;62385;41.594;23.808;2023-12-20T08:44:09;95632.03;;;1.56;86.49
24160;BME280;62385;41.594;23.808;2023-12-20T08:46:35;95623.94;;;1.59;87.07
24160;BME280;62385;41.594;23.808;2023-12-20T08:49:01;95597.09;;;1.68;86.49
24160;BME280;62385;41.594;23.808;2023-12-20T08:51:26;95620.63;;;2.03;85.71
24160;BME280;62385;41.594;23.808;2023-12-20T08:53:53;95582.25;;;1.79;85.82
24160;BME280;62385;41.594;23.808;2023-12-20T08:56:19;95611.13;;;2.13;85.27
24160;BME280;62385;41.594;23.808;2023-12-20T08:58:46;95524.41;;;1.60;84.05
24160;BME280;62385;41.594;23.808;2023-12-20T09:01:12;95600.41;;;2.16;84.70
24160;BME280;62385;41.594;23.808;2023-12-20T09:03:39;95594.22;;;2.06;85.27
24160;BME280;62385;41.594;23.808;2023-12-20T09:06:04;95578.50;;;2.17;84.86
24160;BME280;62385;41.594;23.808;2023-12-20T09:08:31;95597.09;;;2.25;85.12
24160;BME280;62385;41.594;23.808;2023-12-20T09:10:56;95570.41;;;1.98;85.60
24160;BME280;62385;41.594;23.808;2023-12-20T09:13:22;95565.91;;;2.11;84.44
24160;BME280;62385;41.594;23.808;2023-12-20T09:15:56;95572.69;;;2.36;84.27
24160;BME280;62385;41.594;23.808;2023-12-20T09:18:22;95544.94;;;2.22;84.38
24160;BME280;62385;41.594;23.808;2023-12-20T09:20:48;95560.56;;;2.35;84.66
24160;BME280;62385;41.594;23.808;2023-12-20T09:23:13;95532.22;;;2.17;85.27
24160;BME280;62385;41.594;23.808;2023-12-20T09:25:39;95543.66;;;2.27;85.04
24160;BME280;62385;41.594;23.808;2023-12-20T09:28:05;95541.00;;;2.16;85.77
24160;BME280;62385;41.594;23.808;2023-12-20T09:30:30;95538.03;;;2.21;86.63
24160;BME280;62385;41.594;23.808;2023-12-20T09:32:57;95523.63;;;2.15;86.56
24160;BME280;62385;41.594;23.808;2023-12-20T09:35:23;95529.38;;;2.31;86.34
24160;BME280;62385;41.594;23.808;2023-12-20T09:37:49;95496.97;;;2.44;86.14
24160;BME280;62385;41.594;23.808;2023-12-20T09:40:19;95498.84;;;2.42;86.79
24160;BME280;62385;41.594;23.808;2023-12-20T09:45:20;95477.28;;;2.60;85.80
24160;BME280;62385;41.594;23.808;2023-12-20T09:47:49;95487.88;;;2.59;86.05
24160;BME280;62385;41.594;23.808;2023-12-20T09:50:17;95482.31;;;2.52;86.22
24160;BME280;62385;41.594;23.808;2023-12-20T09:52:47;95446.78;;;2.59;85.74
24160;BME280;62385;41.594;23.808;2023-12-20T09:55:15;95465.56;;;2.75;86.69
24160;BME280;62385;41.594;23.808;2023-12-20T09:57:42;95437.22;;;2.69;85.81
24160;BME280;62385;41.594;23.808;2023-12-20T10:00:08;95440.69;;;2.91;85.37
24160;BME280;62385;41.594;23.808;2023-12-20T10:02:42;95402.09;;;2.93;85.99
24160;BME280;62385;41.594;23.808;2023-12-20T10:05:16;95419.25;;;2.97;86.70
24160;BME280;62385;41.594;23.808;2023-12-20T10:07:41;95429.03;;;3.36;85.68
24160;BME280;62385;41.594;23.808;2023-12-20T10:10:07;95435.44;;;3.43;85.09
24160;BME280;62385;41.594;23.808;2023-12-20T10:12:34;95408.16;;;3.55;84.39
24160;BME280;62385;41.594;23.808;2023-12-20T10:14:59;95397.75;;;3.75;84.24
24160;BME280;62385;41.594;23.808;2023-12-20T10:17:27;95385.06;;;3.80;82.47
24160;BME280;62385;41.594;23.808;2023-12-20T10:19:54;95394.84;;;4.08;81.70
24160;BME280;62385;41.594;23.808;2023-12-20T10:22:20;95398.19;;;4.19;81.63
24160;BME280;62385;41.594;23.808;2023-12-20T10:24:46;95393.25;;;4.26;82.42
24160;BME280;62385;41.594;23.808;2023-12-20T10:27:12;95379.00;;;4.38;81.87
24160;BME280;62385;41.594;23.808;2023-12-20T10:29:38;95362.84;;;4.52;80.78
24160;BME280;62385;41.594;23.808;2023-12-20T10:32:23;95351.47;;;4.52;80.17
24160;BME280;62385;41.594;23.808;2023-12-20T10:34:50;95340.69;;;4.26;80.71
24160;BME280;62385;41.594;23.808;2023-12-20T10:37:16;95349.00;;;4.70;78.76
24160;BME280;62385;41.594;23.808;2023-12-20T10:39:43;95328.81;;;4.70;76.19
24160;BME280;62385;41.594;23.808;2023-12-20T10:42:13;95327.78;;;5.09;76.30
24160;BME280;62385;41.594;23.808;2023-12-20T10:44:39;95315.47;;;5.10;76.40
24160;BME280;62385;41.594;23.808;2023-12-20T10:47:06;95320.59;;;5.11;75.17
24160;BME280;62385;41.594;23.808;2023-12-20T10:49:35;95300.63;;;5.19;75.04
24160;BME280;62385;41.594;23.808;2023-12-20T10:52:02;95300.72;;;5.36;75.59
24160;BME280;62385;41.594;23.808;2023-12-20T10:54:29;95291.47;;;5.23;74.81
24160;BME280;62385;41.594;23.808;2023-12-20T10:56:57;95297.53;;;5.42;75.66
24160;BME280;62385;41.594;23.808;2023-12-20T10:59:24;95290.22;;;5.27;75.39
24160;BME280;62385;41.594;23.808;2023-12-20T11:01:50;95248.81;;;5.29;74.68
24160;BME280;62385;41.594;23.808;2023-12-20T11:04:23;95242.25;;;5.42;74.03
24160;BME280;62385;41.594;23.808;2023-12-20T11:06:56;95271.69;;;5.83;74.05
24160;BME280;62385;41.594;23.808;2023-12-20T11:09:38;95266.69;;;5.80;73.76
24160;BME280;62385;41.594;23.808;2023-12-20T11:12:13;95267.91;;;5.95;71.81
24160;BME280;62385;41.594;23.808;2023-12-20T11:14:50;95263.59;;;5.94;73.08
24160;BME280;62385;41.594;23.808;2023-12-20T11:17:16;95255.09;;;5.45;73.27
24160;BME280;62385;41.594;23.808;2023-12-20T11:22:21;95239.69;;;6.23;73.84
24160;BME280;62385;41.594;23.808;2023-12-20T11:24:48;95221.69;;;6.18;71.39
24160;BME280;62385;41.594;23.808;2023-12-20T11:27:14;95205.44;;;6.23;72.90
24160;BME280;62385;41.594;23.808;2023-12-20T11:29:40;95234.75;;;6.63;71.09
24160;BME280;62385;41.594;23.808;2023-12-20T11:35:17;95195.53;;;6.42;72.18
24160;BME280;62385;41.594;23.808;2023-12-20T11:37:43;95169.28;;;6.59;72.75
24160;BME280;62385;41.594;23.808;2023-12-20T11:40:14;95198.19;;;6.86;71.73
24160;BME280;62385;41.594;23.808;2023-12-20T11:42:41;95207.53;;;6.80;71.35
24160;BME280;62385;41.594;23.808;2023-12-20T11:45:11;95203.69;;;7.01;71.83
24160;BME280;62385;41.594;23.808;2023-12-20T11:47:41;95197.84;;;6.89;71.65
24160;BME280;62385;41.594;23.808;2023-12-20T11:50:07;95197.84;;;7.15;72.05
24160;BME280;62385;41.594;23.808;2023-12-20T11:52:33;95195.69;;;7.10;70.36
24160;BME280;62385;41.594;23.808;2023-12-20T11:54:58;95179.59;;;7.29;69.92
24160;BME280;62385;41.594;23.808;2023-12-20T11:57:24;95177.75;;;7.22;68.45
24160;BME280;62385;41.594;23.808;2023-12-20T11:59:50;95171.75;;;7.04;69.75
24160;BME280;62385;41.594;23.808;2023-12-20T12:02:16;95155.47;;;7.16;67.94
24160;BME280;62385;41.594;23.808;2023-12-20T12:04:41;95139.31;;;7.19;68.69
24160;BME280;62385;41.594;23.808;2023-12-20T12:07:07;95151.63;;;7.45;67.99
24160;BME280;62385;41.594;23.808;2023-12-20T12:09:33;95163.34;;;7.50;67.53
24160;BME280;62385;41.594;23.808;2023-12-20T12:11:58;95162.63;;;7.74;65.87
24160;BME280;62385;41.594;23.808;2023-12-20T12:14:24;95127.41;;;7.57;65.71
24160;BME280;62385;41.594;23.808;2023-12-20T12:16:50;95118.31;;;7.60;66.35
24160;BME280;62385;41.594;23.808;2023-12-20T12:19:23;95130.91;;;7.82;65.41
24160;BME280;62385;41.594;23.808;2023-12-20T12:22:05;95131.91;;;7.97;65.19
24160;BME280;62385;41.594;23.808;2023-12-20T12:24:36;95132.28;;;8.10;64.48
24160;BME280;62385;41.594;23.808;2023-12-20T12:27:02;95118.69;;;7.81;65.63
24160;BME280;62385;41.594;23.808;2023-12-20T12:29:27;95128.88;;;7.60;65.22
24160;BME280;62385;41.594;23.808;2023-12-20T12:31:53;95126.53;;;7.49;66.57
24160;BME280;62385;41.594;23.808;2023-12-20T12:34:18;95112.06;;;7.77;65.02
24160;BME280;62385;41.594;23.808;2023-12-20T12:36:44;95115.69;;;7.76;65.18
24160;BME280;62385;41.594;23.808;2023-12-20T12:39:17;95110.59;;;7.82;65.49
24160;BME280;62385;41.594;23.808;2023-12-20T12:41:43;95112.44;;;7.98;64.59
24160;BME280;62385;41.594;23.808;2023-12-20T12:44:09;95098.84;;;7.69;65.73
24160;BME280;62385;41.594;23.808;2023-12-20T12:46:35;95105.47;;;7.73;65.69
24160;BME280;62385;41.594;23.808;2023-12-20T12:49:00;95102.09;;;7.47;66.50
24160;BME280;62385;41.594;23.808;2023-12-20T12:51:26;95110.69;;;7.49;67.26
24160;BME280;62385;41.594;23.808;2023-12-20T12:53:51;95089.75;;;7.63;67.52
24160;BME280;62385;41.594;23.808;2023-12-20T12:56:17;95107.13;;;7.74;67.31
24160;BME280;62385;41.594;23.808;2023-12-20T12:58:42;95070.22;;;7.40;66.27